createdAt,value
2018-12-20T00:02:16.958Z,6.50
2018-12-20T00:04:52.844Z,6.50
2018-12-20T00:07:28.709Z,6.50
2018-12-20T00:10:04.994Z,6.50
2018-12-20T00:12:40.527Z,6.50
2018-12-20T00:15:17.352Z,6.40
2018-12-20T00:17:53.210Z,6.40
2018-12-20T00:20:29.102Z,6.40
2018-12-20T00:23:04.971Z,6.40
2018-12-20T00:25:40.890Z,6.40
2018-12-20T00:28:16.841Z,6.40
2018-12-20T00:30:52.386Z,6.40
2018-12-20T00:33:28.103Z,6.50
2018-12-20T00:36:03.884Z,6.40
2018-12-20T00:38:39.844Z,6.40
2018-12-20T00:41:15.865Z,6.50
2018-12-20T00:43:51.197Z,6.40
2018-12-20T00:46:27.344Z,6.40
2018-12-20T00:49:03.193Z,6.40
2018-12-20T00:51:39.078Z,6.50
2018-12-20T00:54:14.932Z,6.50
2018-12-20T00:56:50.786Z,6.50
2018-12-20T00:59:26.228Z,6.50
2018-12-20T01:02:02.282Z,6.50
2018-12-20T01:04:38.019Z,6.60
2018-12-20T01:07:13.905Z,6.60
2018-12-20T01:09:49.902Z,6.60
2018-12-20T01:12:25.758Z,6.60
2018-12-20T01:15:01.931Z,6.60
2018-12-20T01:17:40.711Z,6.60
2018-12-20T01:20:16.293Z,6.80
2018-12-20T01:22:51.909Z,6.70
2018-12-20T01:25:27.744Z,6.70
2018-12-20T01:28:03.601Z,6.70
2018-12-20T01:30:39.334Z,6.80
2018-12-20T01:33:15.427Z,6.80
2018-12-20T01:35:50.964Z,6.80
2018-12-20T01:38:26.987Z,6.80
2018-12-20T01:41:02.993Z,6.90
2018-12-20T01:43:38.592Z,7.00
2018-12-20T01:46:14.786Z,7.00
2018-12-20T01:48:50.509Z,7.00
2018-12-20T01:51:26.247Z,7.00
2018-12-20T01:54:02.292Z,7.10
2018-12-20T01:56:38.062Z,7.10
2018-12-20T01:59:14.118Z,7.10
2018-12-20T02:18:31.537Z,7.20
2018-12-20T02:21:07.595Z,7.10
2018-12-20T02:23:43.614Z,7.10
2018-12-20T02:26:19.356Z,7.10
2018-12-20T02:28:55.287Z,7.10
2018-12-20T02:31:31.116Z,7.10
2018-12-20T02:34:06.779Z,7.10
2018-12-20T02:36:42.686Z,7.10
2018-12-20T02:39:18.692Z,7.10
2018-12-20T02:41:54.435Z,7.10
2018-12-20T02:44:30.179Z,7.10
2018-12-20T02:47:05.896Z,7.10
2018-12-20T02:49:41.940Z,7.20
2018-12-20T02:52:18.167Z,7.20
2018-12-20T02:54:53.320Z,7.20
2018-12-20T02:57:29.248Z,7.20
2018-12-20T03:00:05.709Z,7.20
2018-12-20T03:02:41.078Z,7.20
2018-12-20T03:05:17.251Z,7.20
2018-12-20T03:07:52.831Z,7.20
2018-12-20T03:10:28.625Z,7.30
2018-12-20T03:13:04.631Z,7.20
2018-12-20T03:15:40.896Z,7.20
2018-12-20T03:18:16.619Z,7.20
2018-12-20T03:20:52.489Z,7.20
2018-12-20T03:23:28.376Z,7.10
2018-12-20T03:26:04.078Z,7.10
2018-12-20T03:28:39.895Z,7.20
2018-12-20T03:31:16.053Z,7.20
2018-12-20T03:33:51.662Z,7.20
2018-12-20T03:36:27.443Z,7.20
2018-12-20T03:39:04.268Z,7.20
2018-12-20T03:41:40.280Z,7.10
2018-12-20T03:44:16.081Z,7.00
2018-12-20T03:46:51.877Z,6.90
2018-12-20T03:49:27.795Z,6.90
2018-12-20T03:52:03.874Z,6.80
2018-12-20T03:54:39.730Z,6.80
2018-12-20T03:57:15.674Z,6.90
2018-12-20T03:59:51.501Z,6.90
2018-12-20T04:02:27.367Z,6.90
2018-12-20T04:05:03.391Z,6.90
2018-12-20T04:07:38.741Z,6.90
2018-12-20T04:10:14.924Z,6.90
2018-12-20T04:12:50.374Z,6.90
2018-12-20T04:15:26.433Z,6.90
2018-12-20T04:18:03.076Z,6.90
2018-12-20T04:20:38.358Z,6.80
2018-12-20T04:23:14.267Z,6.80
2018-12-20T04:25:50.262Z,7.00
2018-12-20T04:28:26.574Z,7.10
2018-12-20T04:31:02.393Z,7.10
2018-12-20T04:33:38.250Z,7.00
2018-12-20T04:36:14.177Z,7.10
2018-12-20T04:38:49.882Z,7.00
2018-12-20T04:41:26.040Z,7.00
2018-12-20T04:44:01.764Z,6.90
2018-12-20T04:46:37.693Z,6.80
2018-12-20T04:49:13.380Z,6.90
2018-12-20T04:51:49.326Z,6.90
2018-12-20T04:54:25.269Z,6.90
2018-12-20T04:57:01.635Z,6.90
2018-12-20T04:59:36.986Z,6.90
2018-12-20T05:02:12.945Z,6.90
2018-12-20T05:04:48.656Z,6.90
2018-12-20T05:07:24.469Z,6.80
2018-12-20T05:10:00.258Z,6.90
2018-12-20T05:12:35.985Z,6.90
2018-12-20T05:15:12.126Z,6.80
2018-12-20T05:17:48.024Z,6.80
2018-12-20T05:20:23.699Z,6.80
2018-12-20T05:22:59.718Z,6.80
2018-12-20T05:25:35.824Z,6.80
2018-12-20T05:28:11.426Z,6.80
2018-12-20T05:30:47.521Z,6.90
2018-12-20T05:33:23.128Z,7.00
2018-12-20T05:35:59.249Z,7.10
2018-12-20T05:38:35.372Z,7.10
2018-12-20T05:41:11.743Z,7.10
2018-12-20T05:43:47.841Z,7.10
2018-12-20T05:46:23.364Z,7.20
2018-12-20T05:48:59.137Z,7.30
2018-12-20T05:51:35.128Z,7.30
2018-12-20T05:54:10.589Z,7.30
2018-12-20T05:56:46.602Z,7.30
2018-12-20T05:59:22.607Z,7.30
2018-12-20T06:01:58.155Z,7.30
2018-12-20T06:04:57.143Z,7.40
2018-12-20T06:07:32.807Z,7.40
2018-12-20T06:10:08.754Z,7.50
2018-12-20T06:12:44.643Z,7.50
2018-12-20T06:15:20.552Z,7.50
2018-12-20T06:17:56.605Z,7.50
2018-12-20T06:20:32.578Z,7.60
2018-12-20T06:23:09.174Z,7.60
2018-12-20T06:25:45.067Z,7.60
2018-12-20T06:28:20.957Z,7.60
2018-12-20T06:30:57.764Z,7.60
2018-12-20T06:33:33.793Z,7.60
2018-12-20T06:36:09.664Z,7.70
2018-12-20T06:38:45.427Z,7.70
2018-12-20T06:41:21.256Z,7.70
2018-12-20T06:43:57.077Z,7.70
2018-12-20T06:46:32.893Z,7.70
2018-12-20T06:49:08.827Z,7.70
2018-12-20T06:51:44.500Z,7.70
2018-12-20T06:54:20.270Z,7.70
2018-12-20T06:56:55.993Z,7.70
2018-12-20T06:59:32.157Z,7.70
2018-12-20T07:02:08.028Z,7.80
2018-12-20T07:04:43.962Z,7.70
2018-12-20T07:07:19.747Z,7.70
2018-12-20T07:09:55.673Z,7.70
2018-12-20T07:12:46.649Z,7.80
2018-12-20T07:15:22.297Z,7.80
2018-12-20T07:17:58.902Z,7.80
2018-12-20T07:20:35.065Z,7.80
2018-12-20T07:23:11.034Z,7.80
2018-12-20T07:25:46.949Z,7.80
2018-12-20T07:28:22.932Z,7.80
2018-12-20T07:30:59.013Z,7.80
2018-12-20T07:33:34.752Z,7.80
2018-12-20T07:36:10.798Z,7.70
2018-12-20T07:38:46.607Z,7.70
2018-12-20T07:41:22.350Z,7.80
2018-12-20T07:43:58.334Z,7.80
2018-12-20T07:46:37.994Z,7.80
2018-12-20T07:49:12.094Z,7.80
2018-12-20T07:51:47.836Z,7.80
2018-12-20T07:54:23.941Z,7.80
2018-12-20T07:56:59.415Z,7.80
2018-12-20T07:59:35.443Z,7.80
2018-12-20T08:02:11.455Z,7.80
2018-12-20T08:04:47.185Z,7.90
2018-12-20T08:07:22.920Z,7.90
2018-12-20T08:09:58.962Z,7.90
2018-12-20T08:12:35.569Z,7.90
2018-12-20T08:15:11.080Z,7.90
2018-12-20T08:17:46.890Z,7.90
2018-12-20T08:20:22.673Z,7.90
2018-12-20T08:22:58.394Z,8.00
2018-12-20T08:25:34.172Z,7.90
2018-12-20T08:28:10.192Z,7.90
2018-12-20T08:30:45.996Z,7.90
2018-12-20T08:33:21.715Z,7.90
2018-12-20T08:35:57.663Z,8.00
2018-12-20T08:38:33.683Z,8.00
2018-12-20T08:41:09.399Z,7.90
2018-12-20T08:43:45.247Z,7.80
2018-12-20T08:46:21.240Z,7.80
2018-12-20T08:48:57.201Z,7.80
2018-12-20T08:51:33.109Z,7.80
2018-12-20T08:54:08.824Z,7.80
2018-12-20T08:56:44.429Z,7.80
2018-12-20T08:59:20.478Z,7.90
2018-12-20T09:01:56.380Z,7.90
2018-12-20T09:04:32.281Z,7.90
2018-12-20T09:07:08.101Z,7.90
2018-12-20T09:09:44.213Z,8.00
2018-12-20T09:12:19.950Z,8.10
2018-12-20T09:14:55.876Z,8.00
2018-12-20T09:17:31.913Z,8.00
2018-12-20T09:20:08.624Z,8.00
2018-12-20T09:22:44.722Z,8.10
2018-12-20T09:25:20.809Z,8.20
2018-12-20T09:27:56.597Z,8.20
2018-12-20T09:30:32.517Z,8.20
2018-12-20T09:33:08.958Z,8.30
2018-12-20T09:35:44.192Z,8.20
2018-12-20T09:38:19.989Z,8.20
2018-12-20T09:40:55.877Z,8.30
2018-12-20T09:43:32.106Z,8.30
2018-12-20T09:46:07.692Z,8.30
2018-12-20T09:48:43.533Z,8.30
2018-12-20T09:51:19.590Z,8.30
2018-12-20T09:53:55.457Z,8.40
2018-12-20T09:56:31.315Z,8.30
2018-12-20T09:59:07.042Z,8.40
2018-12-20T10:01:43.008Z,8.40
2018-12-20T10:04:19.038Z,8.40
2018-12-20T10:06:54.767Z,8.30
2018-12-20T10:09:31.570Z,8.30
2018-12-20T10:12:07.603Z,8.40
2018-12-20T10:14:43.377Z,8.50
2018-12-20T10:17:20.067Z,8.50
2018-12-20T10:19:56.077Z,8.50
2018-12-20T10:22:32.091Z,8.40
2018-12-20T10:25:08.050Z,8.40
2018-12-20T10:27:43.880Z,8.50
2018-12-20T10:30:19.854Z,8.50
2018-12-20T10:32:55.606Z,8.40
2018-12-20T10:35:31.560Z,8.50
2018-12-20T10:38:07.722Z,8.60
2018-12-20T10:40:43.562Z,8.50
2018-12-20T10:43:19.549Z,8.50
2018-12-20T10:45:55.310Z,8.50
2018-12-20T10:48:31.129Z,8.50
2018-12-20T10:51:06.868Z,8.50
2018-12-20T10:53:42.648Z,8.50
2018-12-20T10:56:18.593Z,8.50
2018-12-20T10:58:54.659Z,8.50
2018-12-20T11:01:35.788Z,8.50
2018-12-20T11:04:16.499Z,8.50
2018-12-20T11:06:57.395Z,8.50
2018-12-20T11:09:38.207Z,8.60
2018-12-20T11:12:18.126Z,8.60
2018-12-20T11:14:54.166Z,8.60
2018-12-20T11:17:37.148Z,8.60
2018-12-20T11:20:07.748Z,8.70
2018-12-20T11:22:43.341Z,8.70
2018-12-20T11:25:19.050Z,8.80
2018-12-20T11:27:54.944Z,8.90
2018-12-20T11:30:30.811Z,8.80
2018-12-20T11:33:06.790Z,8.80
2018-12-20T11:35:42.740Z,8.80
2018-12-20T11:38:18.673Z,8.90
2018-12-20T11:40:54.712Z,8.80
2018-12-20T11:43:30.378Z,8.80
2018-12-20T11:46:06.333Z,8.80
2018-12-20T11:48:42.168Z,8.70
2018-12-20T11:51:18.135Z,8.70
2018-12-20T11:53:53.840Z,8.80
2018-12-20T11:56:29.693Z,8.80
2018-12-20T11:59:05.406Z,8.70
2018-12-20T12:01:41.236Z,8.70
2018-12-20T12:04:17.200Z,8.70
2018-12-20T12:06:53.153Z,8.60
2018-12-20T12:09:29.324Z,8.50
2018-12-20T12:12:05.127Z,8.40
2018-12-20T12:14:40.342Z,8.30
2018-12-20T12:17:16.365Z,8.40
2018-12-20T12:19:52.227Z,8.30
2018-12-20T12:22:28.280Z,8.30
2018-12-20T12:25:04.754Z,8.30
2018-12-20T12:27:40.196Z,8.20
2018-12-20T12:30:15.858Z,8.00
2018-12-20T12:32:51.658Z,7.90
2018-12-20T12:35:27.342Z,8.00
2018-12-20T12:38:03.328Z,7.90
2018-12-20T12:40:39.281Z,7.90
2018-12-20T12:43:15.062Z,7.90
2018-12-20T12:45:50.913Z,8.00
2018-12-20T12:48:26.824Z,8.00
2018-12-20T12:51:02.765Z,8.00
2018-12-20T12:53:38.529Z,8.00
2018-12-20T12:56:14.626Z,8.10
2018-12-20T12:58:50.303Z,8.10
2018-12-20T13:01:26.073Z,8.10
2018-12-20T13:04:01.979Z,8.20
2018-12-20T13:06:37.956Z,8.30
2018-12-20T13:09:13.754Z,8.30
2018-12-20T13:11:49.470Z,8.30
2018-12-20T13:14:25.367Z,8.30
2018-12-20T13:17:01.330Z,8.30
2018-12-20T13:19:36.570Z,8.20
2018-12-20T13:22:12.646Z,8.30
2018-12-20T13:24:48.608Z,8.30
2018-12-20T13:27:24.259Z,8.30
2018-12-20T13:30:00.292Z,8.30
2018-12-20T13:32:35.885Z,8.30
2018-12-20T13:35:11.742Z,8.30
2018-12-20T13:37:47.545Z,8.30
2018-12-20T13:40:23.301Z,8.30
2018-12-20T13:42:59.042Z,8.20
2018-12-20T13:45:34.841Z,8.20
2018-12-20T13:48:11.647Z,8.20
2018-12-20T13:50:47.339Z,8.20
2018-12-20T13:53:23.146Z,8.20
2018-12-20T13:55:58.943Z,8.10
2018-12-20T13:58:34.927Z,8.10
2018-12-20T14:01:10.747Z,8.10
2018-12-20T14:03:46.557Z,8.10
2018-12-20T14:06:22.511Z,8.10
2018-12-20T14:08:58.349Z,8.10
2018-12-20T14:11:34.214Z,8.20
2018-12-20T14:14:09.864Z,8.10
2018-12-20T14:16:45.677Z,8.10
2018-12-20T14:19:21.777Z,8.20
2018-12-20T14:21:57.697Z,8.20
2018-12-20T14:24:33.486Z,8.20
2018-12-20T14:27:09.165Z,8.10
2018-12-20T14:29:45.181Z,8.20
2018-12-20T14:32:21.055Z,8.30
2018-12-20T14:34:56.870Z,8.30
2018-12-20T14:37:32.902Z,8.30
2018-12-20T14:40:10.177Z,8.30
2018-12-20T14:42:45.700Z,8.30
2018-12-20T14:45:21.905Z,8.20
2018-12-20T14:47:57.672Z,8.20
2018-12-20T14:50:33.421Z,8.20
2018-12-20T14:53:09.436Z,8.30
2018-12-20T14:55:47.481Z,8.30
2018-12-20T14:58:23.490Z,8.20
2018-12-20T15:00:59.353Z,8.30
2018-12-20T15:03:35.301Z,8.30
2018-12-20T15:06:11.151Z,8.30
2018-12-20T15:08:47.044Z,8.40
2018-12-20T15:11:22.814Z,8.40
2018-12-20T15:13:58.660Z,8.50
2018-12-20T15:16:34.433Z,8.40
2018-12-20T15:19:10.398Z,8.40
2018-12-20T15:21:46.468Z,8.40
2018-12-20T15:24:22.208Z,8.50
2018-12-20T15:26:59.071Z,8.50
2018-12-20T15:29:35.153Z,8.50
2018-12-20T15:32:11.242Z,8.50
2018-12-20T15:34:47.971Z,8.50
2018-12-20T15:37:24.373Z,8.50
2018-12-20T15:40:01.115Z,8.50
2018-12-20T15:42:37.042Z,8.50
2018-12-20T15:45:13.072Z,8.50
2018-12-20T15:47:48.979Z,8.50
2018-12-20T15:50:26.306Z,8.50
2018-12-20T15:53:02.826Z,8.70
2018-12-20T15:55:40.026Z,8.60
2018-12-20T15:58:17.654Z,8.60
2018-12-20T16:00:54.041Z,8.60
2018-12-20T16:03:29.570Z,8.60
2018-12-20T16:06:06.550Z,8.60
2018-12-20T16:08:41.953Z,8.60
2018-12-20T16:11:17.638Z,8.60
2018-12-20T16:13:53.310Z,8.60
2018-12-20T16:16:29.104Z,8.60
2018-12-20T16:19:05.331Z,8.70
2018-12-20T16:21:41.032Z,8.60
2018-12-20T16:24:16.932Z,8.60
2018-12-20T16:26:52.905Z,8.60
2018-12-20T16:29:28.760Z,8.60
2018-12-20T16:32:04.825Z,8.70
2018-12-20T16:34:40.570Z,8.70
2018-12-20T16:37:16.574Z,8.60
2018-12-20T16:39:52.502Z,8.60
2018-12-20T16:42:28.457Z,8.60
2018-12-20T16:45:05.306Z,8.60
2018-12-20T16:47:41.033Z,8.60
2018-12-20T16:50:16.766Z,8.50
2018-12-20T16:52:52.721Z,8.50
2018-12-20T16:55:28.605Z,8.50
2018-12-20T16:58:07.193Z,8.40
2018-12-20T17:00:44.523Z,8.40
2018-12-20T17:03:20.561Z,8.50
2018-12-20T17:05:56.349Z,8.50
2018-12-20T17:11:44.741Z,8.60
2018-12-20T17:14:20.641Z,8.50
2018-12-20T17:16:56.651Z,8.50
2018-12-20T17:19:33.228Z,8.50
2018-12-20T17:22:09.686Z,8.60
2018-12-20T17:24:45.156Z,8.60
2018-12-20T17:27:20.981Z,8.50
2018-12-20T17:29:57.075Z,8.60
2018-12-20T17:32:32.666Z,8.70
2018-12-20T17:35:10.190Z,8.70
2018-12-20T17:37:45.562Z,8.70
2018-12-20T17:40:21.340Z,8.80
2018-12-20T17:42:57.158Z,8.80
2018-12-20T17:45:33.204Z,8.90
2018-12-20T17:48:09.159Z,8.80
2018-12-20T17:50:44.830Z,8.80
2018-12-20T17:53:20.719Z,8.80
2018-12-20T17:55:56.625Z,8.80
2018-12-20T17:58:32.372Z,8.80
2018-12-20T18:03:59.003Z,8.90
2018-12-20T18:06:34.824Z,8.90
2018-12-20T18:09:10.971Z,8.80
2018-12-20T18:11:47.559Z,8.80
2018-12-20T18:14:23.527Z,8.80
2018-12-20T18:16:59.426Z,8.90
2018-12-20T18:19:38.969Z,8.90
2018-12-20T18:22:13.060Z,8.90
2018-12-20T18:24:48.825Z,8.90
2018-12-20T18:27:25.089Z,8.80
2018-12-20T18:30:00.706Z,8.90
2018-12-20T18:32:37.406Z,8.90
2018-12-20T18:35:43.248Z,9.00
2018-12-20T18:38:20.464Z,8.90
2018-12-20T18:40:56.333Z,9.00
2018-12-20T18:43:33.474Z,8.90
2018-12-20T18:46:09.292Z,8.90
2018-12-20T18:48:45.054Z,8.80
2018-12-20T18:51:21.125Z,8.90
2018-12-20T18:53:57.467Z,8.90
2018-12-20T18:56:33.057Z,8.90
2018-12-20T18:59:08.797Z,8.90
2018-12-20T19:01:44.995Z,8.90
2018-12-20T19:04:20.909Z,9.00
2018-12-20T19:06:57.124Z,8.90
2018-12-20T19:09:42.876Z,8.90
2018-12-20T19:12:19.292Z,9.00
2018-12-20T19:14:54.703Z,8.90
2018-12-20T19:17:30.379Z,9.00
2018-12-20T19:20:15.828Z,9.00
2018-12-20T19:22:46.287Z,8.90
2018-12-20T19:25:22.606Z,8.90
2018-12-20T19:27:58.042Z,9.00
2018-12-20T19:30:33.880Z,9.10
2018-12-20T19:33:09.595Z,9.30
2018-12-20T19:35:45.465Z,9.20
2018-12-20T19:38:21.296Z,9.20
2018-12-20T19:40:57.138Z,9.20
2018-12-20T19:43:33.953Z,9.00
2018-12-20T19:46:09.782Z,9.00
2018-12-20T19:48:45.771Z,8.90
2018-12-20T19:51:23.858Z,9.00
2018-12-20T19:53:59.573Z,9.10
2018-12-20T19:56:35.473Z,9.20
2018-12-20T19:59:11.414Z,9.10
2018-12-20T20:01:47.250Z,9.10
2018-12-20T20:04:22.865Z,9.00
2018-12-20T20:06:58.730Z,9.00
2018-12-20T20:09:34.441Z,9.00
2018-12-20T20:12:10.594Z,9.00
2018-12-20T20:14:46.357Z,9.00
2018-12-20T20:17:22.347Z,9.00
2018-12-20T20:19:59.879Z,9.00
2018-12-20T20:22:37.065Z,9.00
2018-12-20T20:25:12.857Z,9.00
2018-12-20T20:27:48.662Z,9.00
2018-12-20T20:30:24.553Z,9.00
2018-12-20T20:33:00.570Z,9.00
2018-12-20T20:35:36.277Z,8.90
2018-12-20T20:38:11.988Z,9.00
2018-12-20T20:40:47.783Z,9.00
2018-12-20T20:43:23.678Z,9.00
2018-12-20T20:45:59.454Z,9.00
2018-12-20T20:48:35.371Z,9.10
2018-12-20T20:51:11.409Z,9.00
2018-12-20T20:53:47.203Z,9.00
2018-12-20T20:56:23.037Z,9.00
2018-12-20T20:58:59.029Z,8.90
2018-12-20T21:01:34.981Z,9.00
2018-12-20T21:04:10.891Z,8.90
2018-12-20T21:06:47.154Z,9.00
2018-12-20T21:09:23.449Z,9.00
2018-12-20T21:11:59.462Z,9.00
2018-12-20T21:14:35.421Z,9.00
2018-12-20T21:17:11.366Z,9.10
2018-12-20T21:19:47.204Z,9.00
2018-12-20T21:22:23.224Z,9.10
2018-12-20T21:24:58.993Z,9.10
2018-12-20T21:27:34.885Z,9.10
2018-12-20T21:30:11.133Z,9.30
2018-12-20T21:32:48.069Z,9.20
2018-12-20T21:35:23.546Z,9.20
2018-12-20T21:37:59.528Z,9.10
2018-12-20T21:40:35.259Z,9.00
2018-12-20T21:43:11.193Z,9.00
2018-12-20T21:45:47.785Z,9.00
2018-12-20T21:48:23.764Z,9.00
2018-12-20T21:51:00.356Z,9.00
2018-12-20T21:53:36.424Z,9.10
2018-12-20T21:56:12.320Z,9.00
2018-12-20T21:58:48.069Z,9.00
2018-12-20T22:01:23.818Z,8.80
2018-12-20T22:03:59.776Z,8.60
2018-12-20T22:06:35.586Z,8.40
2018-12-20T22:09:11.616Z,8.40
2018-12-20T22:11:47.441Z,8.40
2018-12-20T22:14:23.190Z,8.40
2018-12-20T22:16:59.154Z,8.40
2018-12-20T22:19:35.042Z,8.50
2018-12-20T22:22:10.924Z,8.40
2018-12-20T22:24:46.850Z,8.30
2018-12-20T22:27:22.770Z,8.30
2018-12-20T22:29:58.908Z,8.40
2018-12-20T22:32:34.753Z,8.40
2018-12-20T22:35:10.782Z,8.50
2018-12-20T22:37:46.450Z,8.40
2018-12-20T22:40:22.530Z,8.50
2018-12-20T22:42:58.256Z,8.60
2018-12-20T22:45:33.458Z,8.60
2018-12-20T22:48:09.457Z,8.60
2018-12-20T22:50:45.430Z,8.60
2018-12-20T22:53:21.338Z,8.50
2018-12-20T22:55:57.396Z,8.60
2018-12-20T22:58:33.166Z,8.50
2018-12-20T23:01:09.058Z,8.60
2018-12-20T23:03:44.840Z,8.60
2018-12-20T23:06:20.447Z,8.50
2018-12-20T23:08:56.254Z,8.50
2018-12-20T23:11:33.365Z,8.50
2018-12-20T23:14:09.118Z,8.50
2018-12-20T23:16:53.510Z,8.50
2018-12-20T23:19:22.844Z,8.60
2018-12-20T23:21:58.773Z,8.50
2018-12-20T23:24:34.679Z,8.60
2018-12-20T23:27:10.685Z,8.60
2018-12-20T23:29:46.889Z,8.50
2018-12-20T23:32:22.879Z,8.60
2018-12-20T23:34:58.914Z,8.50
2018-12-20T23:37:34.756Z,8.50
2018-12-20T23:40:11.074Z,8.40
2018-12-20T23:42:46.359Z,8.40
2018-12-20T23:45:22.360Z,8.40
2018-12-20T23:47:58.400Z,8.40
2018-12-20T23:50:34.325Z,8.40
2018-12-20T23:53:10.113Z,8.50
2018-12-20T23:55:46.185Z,8.50
2018-12-20T23:58:21.970Z,8.40
